Time;durP1;ratioP1;P1;durP2;ratioP2;P2;SDS_P1;SDS_P2;PMS_P1;PMS_P2;Temp;Humidity;BMP_temperature;BMP_pressure;BME280_temperature;BME280_humidity;BME280_pressure;Samples;Min_cycle;Max_cycle;Signal;HPM_P1;HPM_P2
2021/06/09 00:00:53;;;;;;;7.22;4.20;;;;;;;;;;5060315;28;20128;-54
2021/06/09 00:03:20;;;;;;;7.95;4.30;;;;;;;;;;5065278;28;20106;-58
2021/06/09 00:05:46;;;;;;;7.53;4.38;;;;;;;;;;5081953;28;20053;-56
2021/06/09 00:08:14;;;;;;;8.52;4.70;;;;;;;;;;5062608;28;20044;-55
2021/06/09 00:10:40;;;;;;;9.83;4.40;;;;;;;;;;5064828;28;20121;-54
2021/06/09 00:13:07;;;;;;;7.68;3.95;;;;;;;;;;5061078;28;20052;-56
2021/06/09 00:15:33;;;;;;;7.30;4.20;;;;;;;;;;5065076;28;20051;-56
2021/06/09 00:17:59;;;;;;;8.35;4.22;;;;;;;;;;5062043;28;20110;-58
2021/06/09 00:20:26;;;;;;;8.55;4.18;;;;;;;;;;5097100;28;20048;-57
2021/06/09 00:22:52;;;;;;;8.05;4.28;;;;;;;;;;5061589;28;20044;-55
2021/06/09 00:25:20;;;;;;;8.10;4.30;;;;;;;;;;5066227;28;20059;-57
2021/06/09 00:27:48;;;;;;;11.25;4.47;;;;;;;;;;5081747;28;20032;-59
2021/06/09 00:30:14;;;;;;;;;;;;;;;;;;5065233;28;20048;-57
2021/06/09 00:32:40;;;;;;;9.93;4.38;;;;;;;;;;5093453;28;19994;-59
2021/06/09 00:35:06;;;;;;;10.32;4.25;;;;;;;;;;5065173;28;20044;-58
2021/06/09 00:37:32;;;;;;;8.43;4.47;;;;;;;;;;5056735;28;20159;-58
2021/06/09 00:40:00;;;;;;;9.68;4.32;;;;;;;;;;5061350;28;20056;-58
2021/06/09 00:42:28;;;;;;;9.68;4.13;;;;;;;;;;5059503;28;20072;-58
2021/06/09 00:44:54;;;;;;;7.57;4.15;;;;;;;;;;5059765;28;20047;-58
2021/06/09 00:47:21;;;;;;;9.07;4.65;;;;;;;;;;5059529;28;20054;-56
2021/06/09 00:49:47;;;;;;;10.57;4.45;;;;;;;;;;5058333;28;20032;-56
2021/06/09 00:52:13;;;;;;;8.85;4.30;;;;;;;;;;5060572;28;20055;-58
2021/06/09 00:54:39;;;;;;;12.05;4.47;;;;;;;;;;5056568;28;20044;-57
2021/06/09 00:57:06;;;;;;;11.50;4.63;;;;;;;;;;5077658;28;20045;-58
2021/06/09 00:59:34;;;;;;;12.38;4.72;;;;;;;;;;5055209;28;20041;-58
2021/06/09 01:02:00;;;;;;;11.70;4.85;;;;;;;;;;5058758;28;20037;-57
2021/06/09 01:04:26;;;;;;;8.98;4.82;;;;;;;;;;5068844;28;20132;-59
2021/06/09 01:06:52;;;;;;;15.70;5.07;;;;;;;;;;5061255;28;20037;-57
2021/06/09 01:09:18;;;;;;;7.82;4.75;;;;;;;;;;5055988;28;20048;-55
2021/06/09 01:11:45;;;;;;;12.85;5.07;;;;;;;;;;5061592;28;20059;-57
2021/06/09 01:14:11;;;;;;;7.75;4.40;;;;;;;;;;5057403;28;20040;-54
2021/06/09 01:16:41;;;;;;;9.50;4.85;;;;;;;;;;5059593;28;20044;-59
2021/06/09 01:19:07;;;;;;;8.02;4.53;;;;;;;;;;5056638;28;20047;-57
2021/06/09 01:21:34;;;;;;;9.02;4.15;;;;;;;;;;5060988;28;20052;-57
2021/06/09 01:24:01;;;;;;;11.90;4.70;;;;;;;;;;5057966;28;20045;-53
2021/06/09 01:26:28;;;;;;;9.73;4.88;;;;;;;;;;5076861;28;20044;-55
2021/06/09 01:28:54;;;;;;;10.63;5.05;;;;;;;;;;5079545;28;20033;-57
2021/06/09 01:31:21;;;;;;;9.55;5.18;;;;;;;;;;5057996;28;20056;-54
2021/06/09 01:33:47;;;;;;;9.40;5.15;;;;;;;;;;5077991;28;20041;-58
2021/06/09 01:36:13;;;;;;;13.23;4.95;;;;;;;;;;5057230;28;20067;-56
2021/06/09 01:38:42;;;;;;;11.32;5.53;;;;;;;;;;5092371;28;20065;-58
2021/06/09 01:41:08;;;;;;;12.98;5.07;;;;;;;;;;5093000;28;20033;-55
2021/06/09 01:43:34;;;;;;;12.30;6.00;;;;;;;;;;5066152;28;20056;-53
2021/06/09 01:46:00;;;;;;;8.70;5.10;;;;;;;;;;5061064;28;20044;-57
2021/06/09 01:48:28;;;;;;;11.48;5.13;;;;;;;;;;5065658;28;20117;-58
2021/06/09 01:50:54;;;;;;;10.13;5.18;;;;;;;;;;5074796;28;20037;-57
2021/06/09 01:53:20;;;;;;;9.52;5.32;;;;;;;;;;5080418;28;20103;-55
2021/06/09 01:55:48;;;;;;;9.80;5.22;;;;;;;;;;5085434;28;20055;-57
2021/06/09 01:58:14;;;;;;;;;;;;;;;;;;5101546;28;20036;-57
2021/06/09 02:00:41;;;;;;;9.35;5.03;;;;;;;;;;5096822;28;19927;-58
2021/06/09 02:03:08;;;;;;;8.77;5.10;;;;;;;;;;5068674;28;20032;-57
2021/06/09 02:05:35;;;;;;;8.43;4.95;;;;;;;;;;5080444;28;20036;-56
2021/06/09 02:08:03;;;;;;;11.60;5.65;;;;;;;;;;5086021;28;20040;-53
2021/06/09 02:10:29;;;;;;;9.45;5.32;;;;;;;;;;5066924;28;20040;-57
2021/06/09 02:12:57;;;;;;;10.73;5.53;;;;;;;;;;5081920;28;20126;-57
2021/06/09 02:15:24;;;;;;;10.00;5.43;;;;;;;;;;5084721;28;20037;-58
2021/06/09 02:17:57;;;;;;;12.88;5.63;;;;;;;;;;5079864;28;20044;-55
2021/06/09 02:20:26;;;;;;;10.10;5.80;;;;;;;;;;5084598;28;20052;-52
2021/06/09 02:22:53;;;;;;;9.63;5.55;;;;;;;;;;5080531;28;20047;-52
2021/06/09 02:25:19;;;;;;;8.50;5.03;;;;;;;;;;5066959;28;20116;-56
2021/06/09 02:27:45;;;;;;;10.25;5.47;;;;;;;;;;5082113;28;20052;-55
2021/06/09 02:30:14;;;;;;;10.38;5.82;;;;;;;;;;5067123;28;20040;-58
2021/06/09 02:32:40;;;;;;;10.43;5.68;;;;;;;;;;5081798;28;20044;-58
2021/06/09 02:35:11;;;;;;;9.52;4.97;;;;;;;;;;5085059;28;20040;-59
2021/06/09 02:37:37;;;;;;;8.90;5.20;;;;;;;;;;5060454;28;20035;-57
2021/06/09 02:40:06;;;;;;;11.43;5.57;;;;;;;;;;5064652;28;20040;-59
2021/06/09 02:42:33;;;;;;;9.20;5.28;;;;;;;;;;5060279;28;20047;-54
2021/06/09 02:44:59;;;;;;;9.65;5.57;;;;;;;;;;5063213;28;20052;-56
2021/06/09 02:47:28;;;;;;;9.77;5.88;;;;;;;;;;5059093;28;20041;-55
2021/06/09 02:49:56;;;;;;;13.18;5.35;;;;;;;;;;5062481;28;20037;-58
2021/06/09 02:52:24;;;;;;;8.77;5.82;;;;;;;;;;5075964;28;20069;-56
2021/06/09 02:54:53;;;;;;;10.75;5.70;;;;;;;;;;5063521;28;20037;-58
2021/06/09 02:57:25;;;;;;;9.68;5.53;;;;;;;;;;5063444;28;20055;-52
2021/06/09 02:59:56;;;;;;;11.63;6.10;;;;;;;;;;5060320;28;20101;-56
2021/06/09 03:02:25;;;;;;;11.48;5.35;;;;;;;;;;5063805;28;20052;-56
2021/06/09 03:04:54;;;;;;;11.23;5.93;;;;;;;;;;5077144;28;20036;-54
2021/06/09 03:07:27;;;;;;;11.48;6.22;;;;;;;;;;5080453;28;20041;-58
2021/06/09 03:09:57;;;;;;;10.52;5.57;;;;;;;;;;5070896;28;20068;-54
2021/06/09 03:12:34;;;;;;;10.10;5.82;;;;;;;;;;5070156;28;20048;-56
2021/06/09 03:15:10;;;;;;;9.95;5.60;;;;;;;;;;5075882;28;20093;-57
2021/06/09 03:17:40;;;;;;;10.25;5.72;;;;;;;;;;5061742;28;20040;-58
2021/06/09 03:20:11;;;;;;;11.00;5.68;;;;;;;;;;5057032;28;20048;-57
2021/06/09 03:22:40;;;;;;;11.93;5.60;;;;;;;;;;5062306;28;20036;-54
2021/06/09 03:25:07;;;;;;;10.50;5.82;;;;;;;;;;5057976;28;20040;-57
2021/06/09 03:27:35;;;;;;;11.18;6.18;;;;;;;;;;5062697;28;20068;-57
2021/06/09 03:30:01;;;;;;;;;;;;;;;;;;5059306;28;20055;-56
2021/06/09 03:32:29;;;;;;;12.15;5.70;;;;;;;;;;5061068;28;19916;-56
2021/06/09 03:35:00;;;;;;;10.52;5.97;;;;;;;;;;5058588;28;20040;-58
2021/06/09 03:37:30;;;;;;;10.90;5.88;;;;;;;;;;5064221;28;20052;-58
2021/06/09 03:39:58;;;;;;;8.90;5.57;;;;;;;;;;5062985;28;20024;-55
2021/06/09 03:42:28;;;;;;;9.57;6.03;;;;;;;;;;5098953;28;20040;-56
2021/06/09 03:44:55;;;;;;;9.80;5.75;;;;;;;;;;5079685;28;20055;-57
2021/06/09 03:47:23;;;;;;;11.93;6.28;;;;;;;;;;5099367;28;20036;-57
2021/06/09 03:49:50;;;;;;;10.90;6.20;;;;;;;;;;5078620;28;20047;-55
2021/06/09 03:52:17;;;;;;;10.07;5.75;;;;;;;;;;5082967;28;20133;-54
2021/06/09 03:54:46;;;;;;;12.90;6.55;;;;;;;;;;5079836;28;20048;-57
2021/06/09 03:57:13;;;;;;;10.70;5.57;;;;;;;;;;5065703;28;20051;-56
2021/06/09 03:59:39;;;;;;;10.00;5.68;;;;;;;;;;5099266;28;20048;-58
2021/06/09 04:02:06;;;;;;;9.27;5.80;;;;;;;;;;5078928;28;20052;-57
2021/06/09 04:04:33;;;;;;;10.35;5.85;;;;;;;;;;5065488;28;20044;-55
2021/06/09 04:07:00;;;;;;;12.13;6.10;;;;;;;;;;5077926;28;20098;-57
2021/06/09 04:09:26;;;;;;;10.85;6.25;;;;;;;;;;5083597;28;20044;-56
2021/06/09 04:11:56;;;;;;;10.98;6.15;;;;;;;;;;5079075;28;20137;-58
2021/06/09 04:14:23;;;;;;;11.35;6.22;;;;;;;;;;5067092;28;20044;-56
2021/06/09 04:16:53;;;;;;;10.98;6.40;;;;;;;;;;5096040;28;20028;-59
2021/06/09 04:19:22;;;;;;;12.48;6.80;;;;;;;;;;5100120;28;20044;-57
2021/06/09 04:21:51;;;;;;;12.50;6.75;;;;;;;;;;5062094;28;20040;-56
2021/06/09 04:24:17;;;;;;;10.77;6.53;;;;;;;;;;5082893;28;20052;-55
2021/06/09 04:26:43;;;;;;;12.57;5.75;;;;;;;;;;5080050;28;20044;-52
2021/06/09 04:29:10;;;;;;;9.57;5.72;;;;;;;;;;5082864;28;20051;-59
2021/06/09 04:31:36;;;;;;;11.32;6.35;;;;;;;;;;5061866;28;20048;-57
2021/06/09 04:34:02;;;;;;;15.57;6.22;;;;;;;;;;5099046;28;20141;-57
2021/06/09 04:36:29;;;;;;;11.13;5.97;;;;;;;;;;5078919;28;20044;-55
2021/06/09 04:38:55;;;;;;;12.45;6.63;;;;;;;;;;5061365;28;20068;-51
2021/06/09 04:41:22;;;;;;;11.18;6.50;;;;;;;;;;5076408;28;20056;-57
2021/06/09 04:43:48;;;;;;;10.95;5.97;;;;;;;;;;5055855;28;20091;-56
2021/06/09 04:46:19;;;;;;;11.85;6.40;;;;;;;;;;5060122;28;20032;-57
2021/06/09 04:48:55;;;;;;;18.77;9.90;;;;;;;;;;5056577;28;20041;-57
2021/06/09 04:51:24;;;;;;;19.52;9.32;;;;;;;;;;5061004;28;20044;-58
2021/06/09 04:53:50;;;;;;;23.48;14.18;;;;;;;;;;5058227;28;20048;-58
2021/06/09 04:56:16;;;;;;;22.77;13.52;;;;;;;;;;5055645;28;20044;-56
2021/06/09 04:58:42;;;;;;;18.95;9.80;;;;;;;;;;5056714;28;20060;-57
2021/06/09 05:01:08;;;;;;;16.85;8.20;;;;;;;;;;5059954;28;20051;-55
2021/06/09 05:03:36;;;;;;;13.95;7.43;;;;;;;;;;5055006;28;20033;-58
2021/06/09 05:06:02;;;;;;;15.02;7.30;;;;;;;;;;5060535;28;20040;-58
2021/06/09 05:08:31;;;;;;;16.92;7.32;;;;;;;;;;5057365;28;20053;-58
2021/06/09 05:10:57;;;;;;;12.32;7.38;;;;;;;;;;5058773;28;20040;-57
2021/06/09 05:13:25;;;;;;;14.52;8.23;;;;;;;;;;5055746;28;20041;-57
2021/06/09 05:15:53;;;;;;;13.05;7.55;;;;;;;;;;5065822;28;20061;-57
2021/06/09 05:18:22;;;;;;;14.45;7.85;;;;;;;;;;5055749;28;20108;-57
2021/06/09 05:20:50;;;;;;;17.42;8.85;;;;;;;;;;5059967;28;20037;-57
2021/06/09 05:23:19;;;;;;;17.50;7.80;;;;;;;;;;5059255;28;20041;-58
2021/06/09 05:25:45;;;;;;;18.65;8.38;;;;;;;;;;5063662;28;20048;-57
2021/06/09 05:28:12;;;;;;;20.80;10.35;;;;;;;;;;5062648;28;20077;-57
2021/06/09 05:30:39;;;;;;;28.48;15.57;;;;;;;;;;5058892;28;20105;-58
2021/06/09 05:33:05;;;;;;;42.97;15.52;;;;;;;;;;5064742;28;20050;-56
2021/06/09 05:35:31;;;;;;;28.67;14.45;;;;;;;;;;5059445;28;20048;-58
2021/06/09 05:37:59;;;;;;;23.02;12.13;;;;;;;;;;5061795;28;20044;-54
2021/06/09 05:40:26;;;;;;;22.77;12.00;;;;;;;;;;5062241;28;20041;-51
2021/06/09 05:42:52;;;;;;;22.75;12.02;;;;;;;;;;5071990;28;20052;-55
2021/06/09 05:45:24;;;;;;;23.23;12.85;;;;;;;;;;5071678;28;20055;-55
2021/06/09 05:47:51;;;;;;;20.80;12.13;;;;;;;;;;5066412;28;20052;-57
2021/06/09 05:50:19;;;;;;;22.02;12.55;;;;;;;;;;5071214;28;20036;-55
2021/06/09 05:52:46;;;;;;;24.85;12.82;;;;;;;;;;5065389;28;20143;-53
2021/06/09 05:55:18;;;;;;;29.63;13.60;;;;;;;;;;5046105;28;20041;-55
2021/06/09 05:57:45;;;;;;;39.45;21.75;;;;;;;;;;5063740;28;20134;-58
2021/06/09 06:00:11;;;;;;;30.10;16.50;;;;;;;;;;5043247;28;20044;-59
2021/06/09 06:02:38;;;;;;;27.40;15.00;;;;;;;;;;5080655;28;20133;-58
2021/06/09 06:05:05;;;;;;;26.05;13.30;;;;;;;;;;5062064;28;20063;-55
2021/06/09 06:07:32;;;;;;;25.95;14.10;;;;;;;;;;5078677;28;20116;-57
2021/06/09 06:09:59;;;;;;;28.65;15.88;;;;;;;;;;5043322;28;20111;-55
2021/06/09 06:12:27;;;;;;;29.50;16.00;;;;;;;;;;5046052;28;20040;-57
2021/06/09 06:14:53;;;;;;;29.30;15.73;;;;;;;;;;5046091;28;20048;-56
2021/06/09 06:17:19;;;;;;;31.98;16.40;;;;;;;;;;5042580;28;20052;-58
2021/06/09 06:19:49;;;;;;;27.08;16.15;;;;;;;;;;5044754;28;20048;-58
2021/06/09 06:22:15;;;;;;;31.33;15.98;;;;;;;;;;5042505;28;20048;-56
2021/06/09 06:24:44;;;;;;;31.73;16.50;;;;;;;;;;5045764;28;20037;-55
2021/06/09 06:27:12;;;;;;;36.70;15.85;;;;;;;;;;5076530;28;20073;-58
2021/06/09 06:29:40;;;;;;;31.63;16.42;;;;;;;;;;5045119;28;20037;-56
2021/06/09 06:32:07;;;;;;;29.15;14.85;;;;;;;;;;5075963;28;20033;-54
2021/06/09 06:34:33;;;;;;;28.48;14.65;;;;;;;;;;5045944;28;20040;-56
2021/06/09 06:37:02;;;;;;;34.15;16.70;;;;;;;;;;5059284;28;20036;-56
2021/06/09 06:39:28;;;;;;;;;;;;;;;;;;5079377;28;20037;-55
2021/06/09 06:41:54;;;;;;;29.50;14.48;;;;;;;;;;5074685;28;19943;-55
2021/06/09 06:44:20;;;;;;;34.53;16.48;;;;;;;;;;5046458;28;20037;-54
2021/06/09 06:46:49;;;;;;;27.88;16.55;;;;;;;;;;5043520;28;20029;-58
2021/06/09 06:49:15;;;;;;;32.67;16.73;;;;;;;;;;5045846;28;20051;-58
2021/06/09 06:51:41;;;;;;;28.63;15.60;;;;;;;;;;5062017;28;20041;-56
2021/06/09 06:54:07;;;;;;;28.95;16.88;;;;;;;;;;5046996;28;20055;-55
2021/06/09 06:56:34;;;;;;;33.50;18.13;;;;;;;;;;5063019;28;20040;-58
2021/06/09 06:59:00;;;;;;;29.80;17.42;;;;;;;;;;5060773;28;20102;-55
2021/06/09 07:01:29;;;;;;;30.25;17.10;;;;;;;;;;5045634;28;20052;-57
2021/06/09 07:03:54;;;;;;;;;;;;;;;;;;5042623;28;20041;-58
2021/06/09 07:06:22;;;;;;;29.70;16.38;;;;;;;;;;5078364;28;19928;-57
2021/06/09 07:08:49;;;;;;;37.95;17.80;;;;;;;;;;5041243;28;20045;-57
2021/06/09 07:11:15;;;;;;;31.05;16.95;;;;;;;;;;5046081;28;20136;-58
2021/06/09 07:13:41;;;;;;;26.30;16.17;;;;;;;;;;5049435;28;20048;-57
2021/06/09 07:16:10;;;;;;;25.63;16.63;;;;;;;;;;5064080;28;20056;-55
2021/06/09 07:18:42;;;;;;;29.48;16.10;;;;;;;;;;5075049;28;20056;-55
2021/06/09 07:21:09;;;;;;;32.60;16.40;;;;;;;;;;5045945;28;20032;-57
2021/06/09 07:23:37;;;;;;;31.95;15.70;;;;;;;;;;5040405;28;20248;-56
2021/06/09 07:26:05;;;;;;;27.60;16.38;;;;;;;;;;5059782;28;20029;-56
2021/06/09 07:28:32;;;;;;;31.55;17.00;;;;;;;;;;5046520;28;20081;-56
2021/06/09 07:30:59;;;;;;;28.90;16.88;;;;;;;;;;5045819;28;20045;-59
2021/06/09 07:33:25;;;;;;;34.10;17.20;;;;;;;;;;5041233;28;20140;-56
2021/06/09 07:35:51;;;;;;;31.13;17.17;;;;;;;;;;5044622;28;20139;-57
2021/06/09 07:38:20;;;;;;;30.15;17.80;;;;;;;;;;5049480;28;20036;-57
2021/06/09 07:40:54;;;;;;;29.50;16.90;;;;;;;;;;5059032;28;20044;-58
2021/06/09 07:43:22;;;;;;;31.00;17.55;;;;;;;;;;5060740;27;20056;-57
2021/06/09 07:45:49;;;;;;;29.58;16.13;;;;;;;;;;5059633;28;20052;-58
2021/06/09 07:48:16;;;;;;;27.85;15.60;;;;;;;;;;5062102;28;20052;-56
2021/06/09 07:50:45;;;;;;;30.07;14.97;;;;;;;;;;5049602;28;20069;-55
2021/06/09 07:53:11;;;;;;;25.98;15.48;;;;;;;;;;5062301;28;20040;-57
2021/06/09 07:55:38;;;;;;;29.77;15.80;;;;;;;;;;5058786;28;20045;-59
2021/06/09 07:58:06;;;;;;;26.58;15.23;;;;;;;;;;5080111;28;20032;-59
2021/06/09 08:00:32;;;;;;;27.70;16.65;;;;;;;;;;5066474;28;20310;-58
2021/06/09 08:02:58;;;;;;;24.65;15.10;;;;;;;;;;5061993;28;20089;-58
2021/06/09 08:05:25;;;;;;;27.33;14.63;;;;;;;;;;5058231;28;20041;-57
2021/06/09 08:07:52;;;;;;;26.70;15.18;;;;;;;;;;5061255;28;20047;-56
2021/06/09 08:10:18;;;;;;;29.77;15.27;;;;;;;;;;5057631;28;20044;-57
2021/06/09 08:12:44;;;;;;;27.88;15.25;;;;;;;;;;5061499;28;20040;-59
2021/06/09 08:15:12;;;;;;;24.25;14.20;;;;;;;;;;5057825;28;20032;-57
2021/06/09 08:17:39;;;;;;;27.08;15.00;;;;;;;;;;5060404;28;20142;-57
2021/06/09 08:20:07;;;;;;;26.30;13.70;;;;;;;;;;5074222;28;20040;-59
2021/06/09 08:22:33;;;;;;;27.85;14.73;;;;;;;;;;5062172;28;20069;-56
2021/06/09 08:24:59;;;;;;;21.73;13.68;;;;;;;;;;5063441;28;20049;-58
2021/06/09 08:27:25;;;;;;;24.27;14.18;;;;;;;;;;5075944;28;20052;-58
2021/06/09 08:29:51;;;;;;;27.33;15.20;;;;;;;;;;5062428;28;20065;-57
2021/06/09 08:32:18;;;;;;;24.27;14.20;;;;;;;;;;5050491;28;20041;-59
2021/06/09 08:34:44;;;;;;;26.40;14.23;;;;;;;;;;5061819;28;20047;-59
2021/06/09 08:37:10;;;;;;;32.50;14.80;;;;;;;;;;5058492;28;20039;-59
2021/06/09 08:39:36;;;;;;;31.42;14.70;;;;;;;;;;5080631;28;20049;-59
2021/06/09 08:42:03;;;;;;;27.70;14.43;;;;;;;;;;5061607;28;20044;-59
2021/06/09 08:44:32;;;;;;;21.15;12.40;;;;;;;;;;5064737;28;20055;-60
2021/06/09 08:47:00;;;;;;;26.25;14.90;;;;;;;;;;5061911;28;20121;-59
2021/06/09 08:49:26;;;;;;;;;;;;;;;;;;5064192;28;20121;-58
2021/06/09 08:51:54;;;;;;;28.67;14.10;;;;;;;;;;5093539;28;19967;-58
2021/06/09 08:54:22;;;;;;;24.27;13.20;;;;;;;;;;5065629;28;20044;-58
2021/06/09 08:56:50;;;;;;;25.13;13.65;;;;;;;;;;5094043;28;20056;-59
2021/06/09 08:59:16;;;;;;;22.95;13.55;;;;;;;;;;5066831;28;20040;-56
2021/06/09 09:01:42;;;;;;;28.33;13.68;;;;;;;;;;5064223;28;20048;-58
2021/06/09 09:04:09;;;;;;;23.15;13.10;;;;;;;;;;5086914;28;20040;-58
2021/06/09 09:06:35;;;;;;;25.35;13.07;;;;;;;;;;5069569;28;20044;-59
2021/06/09 09:09:05;;;;;;;19.50;12.68;;;;;;;;;;5065085;28;20040;-58
2021/06/09 09:11:31;;;;;;;24.55;13.20;;;;;;;;;;5086194;28;20052;-59
2021/06/09 09:13:57;;;;;;;25.73;12.52;;;;;;;;;;5098330;28;20044;-58
2021/06/09 09:16:23;;;;;;;25.50;13.07;;;;;;;;;;5066098;28;20036;-59
2021/06/09 09:18:57;;;;;;;22.50;11.05;;;;;;;;;;5064169;28;20028;-59
2021/06/09 09:21:32;;;;;;;22.50;11.20;;;;;;;;;;5084761;28;20054;-59
2021/06/09 09:23:58;;;;;;;23.00;11.07;;;;;;;;;;5063152;28;20059;-59
2021/06/09 09:26:29;;;;;;;17.48;10.43;;;;;;;;;;5067167;28;20052;-59
2021/06/09 09:29:08;;;;;;;23.35;12.40;;;;;;;;;;5063432;28;20028;-60
2021/06/09 09:31:44;;;;;;;20.83;11.52;;;;;;;;;;5066883;28;20044;-59
2021/06/09 09:34:25;;;;;;;23.40;10.68;;;;;;;;;;5063532;28;20040;-60
2021/06/09 09:37:01;;;;;;;19.55;11.52;;;;;;;;;;5082093;28;20048;-59
2021/06/09 09:39:27;;;;;;;18.38;11.00;;;;;;;;;;5079647;28;20101;-59
2021/06/09 09:41:55;;;;;;;15.57;9.40;;;;;;;;;;5066264;28;20048;-58
2021/06/09 09:44:21;;;;;;;22.65;11.32;;;;;;;;;;5097810;28;20032;-59
2021/06/09 09:46:53;;;;;;;17.45;9.95;;;;;;;;;;5065988;28;20036;-58
2021/06/09 09:49:19;;;;;;;17.83;9.93;;;;;;;;;;5062962;28;20044;-60
2021/06/09 09:52:03;;;;;;;13.85;8.02;;;;;;;;;;5066742;28;20036;-59
2021/06/09 09:54:29;;;;;;;17.05;9.95;;;;;;;;;;5063028;28;20128;-56
2021/06/09 09:56:58;;;;;;;16.00;8.55;;;;;;;;;;5066199;28;20037;-59
2021/06/09 09:59:27;;;;;;;15.15;8.93;;;;;;;;;;5063837;28;20044;-60
2021/06/09 10:01:54;;;;;;;18.77;9.35;;;;;;;;;;5084948;28;20064;-61
2021/06/09 10:04:22;;;;;;;19.38;10.55;;;;;;;;;;5095981;28;20056;-60
2021/06/09 10:06:50;;;;;;;13.50;7.60;;;;;;;;;;5067931;28;20047;-60
2021/06/09 10:09:16;;;;;;;15.93;9.20;;;;;;;;;;5063996;28;20040;-60
2021/06/09 10:11:44;;;;;;;15.85;8.18;;;;;;;;;;5080184;28;20036;-59
2021/06/09 10:14:18;;;;;;;15.63;8.52;;;;;;;;;;5047917;28;20055;-62
2021/06/09 10:16:51;;;;;;;14.77;7.50;;;;;;;;;;5060917;28;20045;-60
2021/06/09 10:19:18;;;;;;;12.68;7.57;;;;;;;;;;5100076;28;20048;-59
2021/06/09 10:21:49;;;;;;;11.95;7.57;;;;;;;;;;5085750;28;20055;-59
2021/06/09 10:24:15;;;;;;;17.98;8.93;;;;;;;;;;5067085;28;20040;-59
2021/06/09 10:26:45;;;;;;;18.98;9.68;;;;;;;;;;5062347;28;20048;-59
2021/06/09 10:29:13;;;;;;;13.50;8.25;;;;;;;;;;5100544;28;20048;-60
2021/06/09 10:31:42;;;;;;;14.65;7.38;;;;;;;;;;5097042;28;20032;-59
2021/06/09 10:34:08;;;;;;;12.77;6.68;;;;;;;;;;5065730;28;20051;-59
2021/06/09 10:36:41;;;;;;;12.20;6.55;;;;;;;;;;5063197;28;20044;-58
2021/06/09 10:39:07;;;;;;;12.90;5.50;;;;;;;;;;5064704;28;20043;-59
2021/06/09 10:41:33;;;;;;;10.48;4.90;;;;;;;;;;5079530;28;20036;-59
2021/06/09 10:44:03;;;;;;;8.95;3.80;;;;;;;;;;5066333;28;20047;-59
2021/06/09 10:46:30;;;;;;;13.00;5.40;;;;;;;;;;5097466;28;20032;-59
2021/06/09 10:49:00;;;;;;;16.00;5.28;;;;;;;;;;5068361;28;20043;-59
2021/06/09 10:51:27;;;;;;;9.27;4.85;;;;;;;;;;5098801;28;20044;-59
2021/06/09 10:53:53;;;;;;;9.88;5.82;;;;;;;;;;5066198;28;20052;-58
2021/06/09 10:56:19;;;;;;;10.93;5.35;;;;;;;;;;5094869;28;20065;-59
2021/06/09 10:58:45;;;;;;;10.13;4.53;;;;;;;;;;5065766;28;20032;-58
2021/06/09 11:01:12;;;;;;;11.35;4.82;;;;;;;;;;5083725;28;20033;-59
2021/06/09 11:03:44;;;;;;;9.60;5.18;;;;;;;;;;5079813;28;20036;-55
2021/06/09 11:06:11;;;;;;;7.93;4.30;;;;;;;;;;5098272;28;20052;-58
2021/06/09 11:08:38;;;;;;;10.52;5.22;;;;;;;;;;5060814;28;20040;-59
2021/06/09 11:11:15;;;;;;;11.82;5.53;;;;;;;;;;5064501;28;20059;-60
2021/06/09 11:13:45;;;;;;;11.00;5.60;;;;;;;;;;5058604;28;20040;-59
2021/06/09 11:16:12;;;;;;;13.27;5.05;;;;;;;;;;5083978;28;20072;-59
2021/06/09 11:18:40;;;;;;;11.50;4.47;;;;;;;;;;5080846;28;20044;-60
2021/06/09 11:21:08;;;;;;;;;;;;;;;;;;5065979;28;20040;-59
2021/06/09 11:23:38;;;;;;;9.63;5.43;;;;;;;;;;5094024;28;20000;-59
2021/06/09 11:26:05;;;;;;;9.43;4.05;;;;;;;;;;5098569;28;20036;-59
2021/06/09 11:28:39;;;;;;;9.68;5.20;;;;;;;;;;5063006;28;20036;-59
2021/06/09 11:31:05;;;;;;;10.32;5.22;;;;;;;;;;5098905;28;20037;-59
2021/06/09 11:33:36;;;;;;;11.90;5.97;;;;;;;;;;5080560;28;20101;-58
2021/06/09 11:36:03;;;;;;;12.63;6.75;;;;;;;;;;5065697;28;20048;-59
2021/06/09 11:38:29;;;;;;;11.10;5.78;;;;;;;;;;5086598;28;20029;-60
2021/06/09 11:40:59;;;;;;;12.07;6.88;;;;;;;;;;5045214;28;20114;-59
2021/06/09 11:43:26;;;;;;;11.80;6.55;;;;;;;;;;5059348;28;20033;-59
2021/06/09 11:46:03;;;;;;;11.93;7.00;;;;;;;;;;5045081;28;20044;-59
2021/06/09 11:48:31;;;;;;;14.00;7.38;;;;;;;;;;5064701;28;20040;-59
2021/06/09 11:50:57;;;;;;;12.50;6.80;;;;;;;;;;5063372;28;20040;-56
2021/06/09 11:53:37;;;;;;;13.43;7.75;;;;;;;;;;5059461;28;20273;-59
2021/06/09 11:56:24;;;;;;;11.25;6.10;;;;;;;;;;5063049;28;20037;-59
2021/06/09 11:58:52;;;;;;;14.27;7.17;;;;;;;;;;5053730;28;20036;-59
2021/06/09 12:01:18;;;;;;;11.95;6.40;;;;;;;;;;5044778;28;20117;-59
2021/06/09 12:03:45;;;;;;;12.20;7.28;;;;;;;;;;5059593;28;20051;-59
2021/06/09 12:06:16;;;;;;;11.27;6.43;;;;;;;;;;5046307;28;20125;-59
2021/06/09 12:08:42;;;;;;;15.73;8.60;;;;;;;;;;5079329;28;20025;-60
2021/06/09 12:11:08;;;;;;;14.88;7.38;;;;;;;;;;5074293;28;20060;-59
2021/06/09 12:13:34;;;;;;;13.15;8.05;;;;;;;;;;5063904;28;20126;-58
2021/06/09 12:16:06;;;;;;;14.95;7.53;;;;;;;;;;5059905;28;20052;-59
2021/06/09 12:18:36;;;;;;;14.57;8.65;;;;;;;;;;5042602;28;20036;-59
2021/06/09 12:21:03;;;;;;;12.93;6.55;;;;;;;;;;5040426;28;20076;-59
2021/06/09 12:23:29;;;;;;;12.15;7.85;;;;;;;;;;5062284;28;20048;-59
2021/06/09 12:25:57;;;;;;;13.98;8.23;;;;;;;;;;5041120;28;20032;-60
2021/06/09 12:28:23;;;;;;;11.88;6.28;;;;;;;;;;5045368;28;20061;-58
2021/06/09 12:30:52;;;;;;;14.25;7.65;;;;;;;;;;5042410;28;20110;-60
2021/06/09 12:33:20;;;;;;;19.00;11.73;;;;;;;;;;5043281;28;20040;-60
2021/06/09 12:35:46;;;;;;;12.55;7.00;;;;;;;;;;5058686;28;20044;-59
2021/06/09 12:38:12;;;;;;;20.40;10.60;;;;;;;;;;5049760;28;20040;-60
2021/06/09 12:40:39;;;;;;;23.10;11.32;;;;;;;;;;5059217;28;21111;-60
2021/06/09 12:43:06;;;;;;;18.25;9.60;;;;;;;;;;5061796;28;20037;-60
2021/06/09 12:45:34;;;;;;;18.50;10.53;;;;;;;;;;5058668;28;20052;-59
2021/06/09 12:48:03;;;;;;;23.85;14.20;;;;;;;;;;5060099;28;20122;-61
2021/06/09 12:50:35;;;;;;;19.85;11.15;;;;;;;;;;5058799;28;20033;-60
2021/06/09 12:53:02;;;;;;;18.63;11.48;;;;;;;;;;5040960;28;20101;-59
2021/06/09 12:55:29;;;;;;;22.10;13.32;;;;;;;;;;5041991;28;20077;-60
2021/06/09 12:57:56;;;;;;;15.75;9.98;;;;;;;;;;5057079;28;20045;-59
2021/06/09 13:00:26;;;;;;;33.10;16.80;;;;;;;;;;5059414;28;20037;-60
2021/06/09 13:03:07;;;;;;;26.05;16.15;;;;;;;;;;5059105;28;20041;-57
2021/06/09 13:05:34;;;;;;;27.00;15.57;;;;;;;;;;5076651;28;20036;-60
2021/06/09 13:08:06;;;;;;;24.38;15.23;;;;;;;;;;5057709;28;20111;-59
2021/06/09 13:10:32;;;;;;;25.35;14.95;;;;;;;;;;5078264;28;20044;-59
2021/06/09 13:12:58;;;;;;;23.10;14.40;;;;;;;;;;5065124;28;20052;-60
2021/06/09 13:15:24;;;;;;;22.27;14.90;;;;;;;;;;5061874;28;20045;-60
2021/06/09 13:17:50;;;;;;;19.70;14.43;;;;;;;;;;5056006;28;20104;-60
2021/06/09 13:20:18;;;;;;;26.45;14.13;;;;;;;;;;5076680;28;20056;-61
2021/06/09 13:22:46;;;;;;;24.00;13.35;;;;;;;;;;5057008;28;20070;-60
2021/06/09 13:25:13;;;;;;;19.70;12.10;;;;;;;;;;5060770;28;20032;-59
2021/06/09 13:27:39;;;;;;;22.00;12.82;;;;;;;;;;5058185;28;20045;-60
2021/06/09 13:30:08;;;;;;;19.85;9.48;;;;;;;;;;5060972;28;20036;-59
2021/06/09 13:32:34;;;;;;;20.17;12.05;;;;;;;;;;5058064;28;20051;-60
2021/06/09 13:35:02;;;;;;;16.13;9.95;;;;;;;;;;5060098;28;20053;-59
2021/06/09 13:37:30;;;;;;;17.77;11.23;;;;;;;;;;5057574;28;20112;-60
2021/06/09 13:39:58;;;;;;;15.68;7.65;;;;;;;;;;5042311;28;20040;-60
2021/06/09 13:42:30;;;;;;;14.45;7.85;;;;;;;;;;5038603;28;20064;-59
2021/06/09 13:44:58;;;;;;;12.13;6.60;;;;;;;;;;5043858;28;20047;-59
2021/06/09 13:47:26;;;;;;;12.65;6.95;;;;;;;;;;5064102;28;20045;-61
2021/06/09 13:49:52;;;;;;;;;;;;;;;;;;5078443;28;20098;-60
2021/06/09 13:52:24;;;;;;;16.40;6.82;;;;;;;;;;5045810;28;19912;-59
2021/06/09 13:54:56;;;;;;;11.20;6.60;;;;;;;;;;5076466;28;20048;-61
2021/06/09 13:57:25;;;;;;;17.30;7.95;;;;;;;;;;5046672;28;20039;-59
2021/06/09 13:59:52;;;;;;;13.90;7.40;;;;;;;;;;5041274;28;20055;-60
2021/06/09 14:02:24;;;;;;;19.10;8.68;;;;;;;;;;5047707;28;20040;-60
2021/06/09 14:04:50;;;;;;;14.20;7.80;;;;;;;;;;5076104;28;20052;-58
2021/06/09 14:07:20;;;;;;;13.50;8.23;;;;;;;;;;5081422;28;20044;-61
2021/06/09 14:09:54;;;;;;;15.82;8.20;;;;;;;;;;5077319;28;20048;-60
2021/06/09 14:12:20;;;;;;;12.13;6.75;;;;;;;;;;5046972;28;20029;-60
2021/06/09 14:14:47;;;;;;;11.73;6.93;;;;;;;;;;5041955;28;20045;-60
2021/06/09 14:17:16;;;;;;;13.60;8.27;;;;;;;;;;5080725;28;20033;-59
2021/06/09 14:19:51;;;;;;;9.50;5.90;;;;;;;;;;5042057;28;20044;-61
2021/06/09 14:22:22;;;;;;;15.20;7.78;;;;;;;;;;5080047;28;20041;-61
2021/06/09 14:24:48;;;;;;;10.55;4.20;;;;;;;;;;5060640;28;20094;-60
2021/06/09 14:27:14;;;;;;;10.95;5.97;;;;;;;;;;5079402;28;20041;-59
2021/06/09 14:29:40;;;;;;;11.15;6.32;;;;;;;;;;5075901;28;20064;-61
2021/06/09 14:32:10;;;;;;;12.18;6.45;;;;;;;;;;5046610;28;20118;-59
2021/06/09 14:34:39;;;;;;;9.10;5.38;;;;;;;;;;5043432;28;20061;-60